createdAt,value
2018-03-01T00:02:12.261Z,95.90
2018-03-01T00:05:22.794Z,96.00
2018-03-01T00:08:33.233Z,96.20
2018-03-01T00:11:43.237Z,96.00
2018-03-01T00:14:53.412Z,96.00
2018-03-01T00:18:03.497Z,96.30
2018-03-01T00:21:13.663Z,96.30
2018-03-01T00:24:23.553Z,96.40
2018-03-01T00:27:33.861Z,96.60
2018-03-01T00:30:44.546Z,96.50
2018-03-01T00:33:55.834Z,96.70
2018-03-01T00:37:06.317Z,96.70
2018-03-01T00:40:16.226Z,96.70
2018-03-01T00:43:26.460Z,96.80
2018-03-01T00:46:36.604Z,96.60
2018-03-01T00:49:46.412Z,96.80
2018-03-01T00:52:56.151Z,96.90
2018-03-01T00:56:06.193Z,97.00
2018-03-01T00:59:17.579Z,96.80
2018-03-01T01:02:27.587Z,96.80
2018-03-01T01:05:37.743Z,96.90
2018-03-01T01:08:47.658Z,97.00
2018-03-01T01:11:57.805Z,97.10
2018-03-01T01:15:08.040Z,97.00
2018-03-01T01:18:18.085Z,97.10
2018-03-01T01:21:28.363Z,97.20
2018-03-01T01:24:38.618Z,97.30
2018-03-01T01:27:48.944Z,97.60
2018-03-01T01:30:58.670Z,97.90
2018-03-01T01:34:09.053Z,97.50
2018-03-01T01:37:19.501Z,97.90
2018-03-01T01:40:29.511Z,97.70
2018-03-01T01:43:39.767Z,97.90
2018-03-01T01:46:49.772Z,97.90
2018-03-01T01:50:00.165Z,98.00
2018-03-01T01:53:10.773Z,98.10
2018-03-01T01:56:20.690Z,98.40
2018-03-01T01:59:31.123Z,98.40
2018-03-01T02:02:41.966Z,98.70
2018-03-01T02:05:52.404Z,98.70
2018-03-01T02:09:03.264Z,98.70
2018-03-01T02:12:13.382Z,98.70
2018-03-01T02:15:23.445Z,98.80
2018-03-01T02:18:33.608Z,99.00
2018-03-01T02:21:43.446Z,99.20
2018-03-01T02:24:54.360Z,99.50
2018-03-01T02:28:04.702Z,99.50
2018-03-01T02:31:15.045Z,99.30
2018-03-01T02:34:25.276Z,99.50
2018-03-01T02:37:35.819Z,99.70
2018-03-01T02:40:46.000Z,99.70
2018-03-01T02:43:57.171Z,99.90
2018-03-01T02:47:07.721Z,99.90
2018-03-01T02:50:17.898Z,99.90
2018-03-01T02:53:28.378Z,99.90
2018-03-01T02:56:38.099Z,99.90
2018-03-01T02:59:48.798Z,99.90
2018-03-01T03:02:58.854Z,99.90
2018-03-01T03:06:09.936Z,99.90
2018-03-01T03:09:20.114Z,99.90
2018-03-01T03:12:30.232Z,99.90
2018-03-01T03:15:40.142Z,99.90
2018-03-01T03:18:50.125Z,99.90
2018-03-01T03:21:59.376Z,99.90
2018-03-01T03:25:09.263Z,99.90
2018-03-01T03:28:19.873Z,99.90
2018-03-01T03:31:29.999Z,99.90
2018-03-01T03:34:39.951Z,99.90
2018-03-01T03:37:49.786Z,99.90
2018-03-01T03:41:00.277Z,99.90
2018-03-01T03:44:10.346Z,99.90
2018-03-01T03:47:20.382Z,99.90
2018-03-01T03:50:30.250Z,99.90
2018-03-01T03:53:40.132Z,99.90
2018-03-01T03:56:50.500Z,99.90
2018-03-01T04:00:00.875Z,99.90
2018-03-01T04:03:11.151Z,99.90
2018-03-01T04:06:21.567Z,99.90
2018-03-01T04:09:31.958Z,99.90
2018-03-01T04:12:42.108Z,99.90
2018-03-01T04:15:52.803Z,99.90
2018-03-01T04:19:02.814Z,99.90
2018-03-01T04:22:13.604Z,99.90
2018-03-01T04:25:24.011Z,99.90
2018-03-01T04:28:34.495Z,99.90
2018-03-01T04:31:45.042Z,99.90
2018-03-01T04:34:55.304Z,99.90
2018-03-01T04:38:05.979Z,99.90
2018-03-01T04:41:17.195Z,99.90
2018-03-01T04:44:27.520Z,99.90
2018-03-01T04:47:37.717Z,99.90
2018-03-01T04:50:48.167Z,99.90
2018-03-01T04:53:58.218Z,99.90
2018-03-01T04:57:08.209Z,99.90
2018-03-01T05:00:18.440Z,99.90
2018-03-01T05:03:28.557Z,99.90
2018-03-01T05:06:39.549Z,99.90
2018-03-01T05:09:49.896Z,99.90
2018-03-01T05:13:00.531Z,99.90
2018-03-01T05:16:10.853Z,99.90
2018-03-01T05:19:22.316Z,99.90
2018-03-01T05:22:33.723Z,99.90
2018-03-01T05:25:45.013Z,99.90
2018-03-01T05:28:55.273Z,99.90
2018-03-01T05:32:05.682Z,99.90
2018-03-01T05:35:16.111Z,99.90
2018-03-01T05:38:26.074Z,99.90
2018-03-01T05:41:35.916Z,99.90
2018-03-01T05:44:45.966Z,99.90
2018-03-01T05:47:56.239Z,99.90
2018-03-01T05:51:05.982Z,99.90
2018-03-01T05:54:16.313Z,99.90
2018-03-01T05:57:26.335Z,99.90
2018-03-01T06:00:36.469Z,99.90
2018-03-01T06:03:47.533Z,99.90
2018-03-01T06:06:57.372Z,99.90
2018-03-01T06:10:07.683Z,99.90
2018-03-01T06:13:18.290Z,99.90
2018-03-01T06:16:28.167Z,99.90
2018-03-01T06:19:38.611Z,99.90
2018-03-01T06:22:48.902Z,99.90
2018-03-01T06:26:00.043Z,99.90
2018-03-01T06:29:10.941Z,99.90
2018-03-01T06:32:21.230Z,99.90
2018-03-01T06:35:31.398Z,99.90
2018-03-01T06:38:42.094Z,99.90
2018-03-01T06:41:53.273Z,99.90
2018-03-01T06:45:04.346Z,99.90
2018-03-01T06:48:14.678Z,99.90
2018-03-01T06:51:24.599Z,99.90
2018-03-01T06:54:34.717Z,99.90
2018-03-01T06:57:44.688Z,99.90
2018-03-01T07:00:54.675Z,99.90
2018-03-01T07:04:04.568Z,99.90
2018-03-01T07:07:14.703Z,99.90
2018-03-01T07:10:24.760Z,99.90
2018-03-01T07:13:34.744Z,99.90
2018-03-01T07:16:44.896Z,99.90
2018-03-01T07:19:56.124Z,99.90
2018-03-01T07:23:06.661Z,99.90
2018-03-01T07:26:17.090Z,99.90
2018-03-01T07:29:27.045Z,99.90
2018-03-01T07:32:37.481Z,99.90
2018-03-01T07:35:47.432Z,99.90
2018-03-01T07:38:57.714Z,98.50
2018-03-01T07:42:07.435Z,99.00
2018-03-01T07:45:17.536Z,98.90
2018-03-01T07:48:27.695Z,98.20
2018-03-01T07:51:37.616Z,97.00
2018-03-01T07:54:48.142Z,97.60
2018-03-01T07:57:58.363Z,96.60
2018-03-01T08:01:08.472Z,97.00
2018-03-01T08:04:18.557Z,96.20
2018-03-01T08:07:28.756Z,95.30
2018-03-01T08:10:38.805Z,95.80
2018-03-01T08:13:49.486Z,95.10
2018-03-01T08:16:59.672Z,95.60
2018-03-01T08:20:09.401Z,94.90
2018-03-01T08:23:20.221Z,93.60
2018-03-01T08:26:30.625Z,93.40
2018-03-01T08:29:41.677Z,92.50
2018-03-01T08:32:52.370Z,92.50
2018-03-01T08:36:02.555Z,92.40
2018-03-01T08:39:12.601Z,92.00
2018-03-01T08:42:23.193Z,92.10
2018-03-01T08:45:33.713Z,92.00
2018-03-01T08:48:43.741Z,91.70
2018-03-01T08:51:54.714Z,90.90
2018-03-01T08:55:04.338Z,90.60
2018-03-01T08:58:14.595Z,90.50
2018-03-01T09:01:24.790Z,90.30
2018-03-01T09:04:34.952Z,88.50
2018-03-01T09:07:45.045Z,86.00
2018-03-01T09:10:55.841Z,85.10
2018-03-01T09:14:06.134Z,88.00
2018-03-01T09:17:16.558Z,86.50
2018-03-01T09:20:26.878Z,86.00
2018-03-01T09:23:37.017Z,84.90
2018-03-01T09:26:47.651Z,83.50
2018-03-01T09:29:57.664Z,82.70
2018-03-01T09:33:07.652Z,83.10
2018-03-01T09:36:17.978Z,78.80
2018-03-01T09:39:28.351Z,78.40
2018-03-01T09:42:38.261Z,79.50
2018-03-01T09:45:48.663Z,79.30
2018-03-01T09:48:58.919Z,78.50
2018-03-01T09:52:08.955Z,75.80
2018-03-01T09:55:19.549Z,73.40
2018-03-01T09:58:29.784Z,74.70
2018-03-01T10:01:39.747Z,73.40
2018-03-01T10:04:50.037Z,74.40
2018-03-01T10:08:00.075Z,72.40
2018-03-01T10:11:10.499Z,71.40
2018-03-01T10:14:20.553Z,71.40
2018-03-01T10:17:30.440Z,71.70
2018-03-01T10:20:41.025Z,69.40
2018-03-01T10:23:51.212Z,70.60
2018-03-01T10:27:01.956Z,68.80
2018-03-01T10:30:13.253Z,66.40
2018-03-01T10:33:23.716Z,66.10
2018-03-01T10:36:33.953Z,65.00
2018-03-01T10:39:44.418Z,64.00
2018-03-01T10:42:54.406Z,61.90
2018-03-01T10:46:04.258Z,59.80
2018-03-01T10:49:14.497Z,60.60
2018-03-01T10:52:24.877Z,57.80
2018-03-01T10:55:35.057Z,55.10
2018-03-01T10:58:45.476Z,55.70
2018-03-01T11:01:59.947Z,54.20
2018-03-01T11:05:10.299Z,54.10
2018-03-01T11:08:20.448Z,53.50
2018-03-01T11:11:30.612Z,52.10
2018-03-01T11:14:40.800Z,51.20
2018-03-01T11:17:51.271Z,49.40
2018-03-01T11:21:00.913Z,48.50
2018-03-01T11:24:10.694Z,49.10
2018-03-01T11:27:20.590Z,47.70
2018-03-01T11:30:30.817Z,46.80
2018-03-01T11:33:42.145Z,47.40
2018-03-01T11:36:52.808Z,46.70
2018-03-01T11:40:02.956Z,47.90
2018-03-01T11:43:12.982Z,46.60
2018-03-01T11:46:22.872Z,47.50
2018-03-01T11:49:32.777Z,45.80
2018-03-01T11:52:43.191Z,44.60
2018-03-01T11:55:53.476Z,43.70
2018-03-01T11:59:04.351Z,44.10
2018-03-01T12:02:15.724Z,44.00
2018-03-01T12:05:26.132Z,43.90
2018-03-01T12:08:36.482Z,42.60
2018-03-01T12:11:46.901Z,42.70
2018-03-01T12:14:57.406Z,41.90
2018-03-01T12:18:07.336Z,41.60
2018-03-01T12:21:17.769Z,41.30
2018-03-01T12:24:27.831Z,40.70
2018-03-01T12:27:38.409Z,41.70
2018-03-01T12:30:48.488Z,41.70
2018-03-01T12:33:58.718Z,41.30
2018-03-01T12:37:09.269Z,40.60
2018-03-01T12:40:19.972Z,41.40
2018-03-01T12:43:30.512Z,41.10
2018-03-01T12:46:41.305Z,41.40
2018-03-01T12:49:51.283Z,41.40
2018-03-01T12:53:02.030Z,40.40
2018-03-01T12:56:12.453Z,40.30
2018-03-01T12:59:22.383Z,40.30
2018-03-01T13:02:32.392Z,40.60
2018-03-01T13:05:41.997Z,41.00
2018-03-01T13:08:52.363Z,41.20
2018-03-01T13:12:02.985Z,41.00
2018-03-01T13:15:13.497Z,40.90
2018-03-01T13:18:24.963Z,41.20
2018-03-01T13:21:36.033Z,41.80
2018-03-01T13:24:46.292Z,41.20
2018-03-01T13:27:56.180Z,42.00
2018-03-01T13:34:47.934Z,41.10
2018-03-01T13:37:58.738Z,41.40
2018-03-01T13:41:08.374Z,41.80
2018-03-01T13:44:18.368Z,41.40
2018-03-01T13:47:28.798Z,41.90
2018-03-01T13:50:39.183Z,41.20
2018-03-01T13:53:49.038Z,41.10
2018-03-01T13:56:59.189Z,40.40
2018-03-01T14:00:09.749Z,40.90
2018-03-01T14:03:20.032Z,40.80
2018-03-01T14:06:30.688Z,40.90
2018-03-01T14:09:40.881Z,40.50
2018-03-01T14:12:56.236Z,39.70
2018-03-01T14:16:06.389Z,39.90
2018-03-01T14:22:59.115Z,39.30
2018-03-01T14:26:11.045Z,39.20
2018-03-01T14:29:27.071Z,38.70
2018-03-01T14:32:38.665Z,39.40
2018-03-01T14:35:48.995Z,39.10
2018-03-01T14:38:59.667Z,38.60
2018-03-01T14:42:09.814Z,38.50
2018-03-01T14:45:20.494Z,38.00
2018-03-01T14:48:30.988Z,38.60
2018-03-01T14:51:41.724Z,39.20
2018-03-01T14:54:52.032Z,39.50
2018-03-01T14:58:02.722Z,40.00
2018-03-01T15:01:12.923Z,40.70
2018-03-01T15:04:22.820Z,40.70
2018-03-01T15:07:33.796Z,40.80
2018-03-01T15:10:44.439Z,41.00
2018-03-01T15:13:54.681Z,40.90
2018-03-01T15:17:05.089Z,41.90
2018-03-01T15:20:15.084Z,41.40
2018-03-01T15:23:25.666Z,41.50
2018-03-01T15:26:35.861Z,41.00
2018-03-01T15:29:45.968Z,40.20
2018-03-01T15:32:57.317Z,41.40
2018-03-01T15:36:07.509Z,41.40
2018-03-01T15:39:17.804Z,42.50
2018-03-01T15:42:28.236Z,42.90
2018-03-01T15:45:37.997Z,43.20
2018-03-01T15:48:48.829Z,44.50
2018-03-01T15:51:59.294Z,44.50
2018-03-01T15:55:11.377Z,44.60
2018-03-01T15:58:22.128Z,45.30
2018-03-01T16:01:32.035Z,46.20
2018-03-01T16:04:42.138Z,46.20
2018-03-01T16:07:53.257Z,46.50
2018-03-01T16:11:03.815Z,46.50
2018-03-01T16:14:13.956Z,47.20
2018-03-01T16:17:23.804Z,46.90
2018-03-01T16:20:34.062Z,47.00
2018-03-01T16:23:44.341Z,47.70
2018-03-01T16:26:54.130Z,48.40
2018-03-01T16:30:03.914Z,48.10
2018-03-01T16:33:14.151Z,48.80
2018-03-01T16:36:24.291Z,49.10
2018-03-01T16:39:34.525Z,49.90
2018-03-01T16:42:44.268Z,49.70
2018-03-01T16:45:54.131Z,50.00
2018-03-01T16:49:04.317Z,50.90
2018-03-01T16:52:14.943Z,52.30
2018-03-01T16:55:25.879Z,52.80
2018-03-01T16:58:36.226Z,52.90
2018-03-01T17:01:46.106Z,52.40
2018-03-01T17:04:56.267Z,54.00
2018-03-01T17:08:07.301Z,53.60
2018-03-01T17:11:17.362Z,55.40
2018-03-01T17:14:27.871Z,55.60
2018-03-01T17:17:38.360Z,55.50
2018-03-01T17:20:49.497Z,57.60
2018-03-01T17:23:59.544Z,57.50
2018-03-01T17:27:10.768Z,58.10
2018-03-01T17:30:20.900Z,58.00
2018-03-01T17:33:31.253Z,58.00
2018-03-01T17:36:41.802Z,59.70
2018-03-01T17:39:52.548Z,60.90
2018-03-01T17:43:02.770Z,60.70
2018-03-01T17:46:12.861Z,64.90
2018-03-01T17:49:22.920Z,64.30
2018-03-01T17:52:33.503Z,65.10
2018-03-01T17:55:44.502Z,65.40
2018-03-01T17:58:54.825Z,65.40
2018-03-01T18:02:04.940Z,64.70
2018-03-01T18:05:15.584Z,68.30
2018-03-01T18:08:26.358Z,67.90
2018-03-01T18:11:37.084Z,67.90
2018-03-01T18:14:47.343Z,67.30
2018-03-01T18:17:58.253Z,66.30
2018-03-01T18:21:09.709Z,69.10
2018-03-01T18:24:19.846Z,69.00
2018-03-01T18:27:30.564Z,67.70
2018-03-01T18:30:41.367Z,68.30
2018-03-01T18:33:51.203Z,65.40
2018-03-01T18:37:01.369Z,67.70
2018-03-01T18:40:12.011Z,70.30
2018-03-01T18:43:23.364Z,68.90
2018-03-01T18:46:33.977Z,68.00
2018-03-01T18:49:44.764Z,66.40
2018-03-01T18:52:55.512Z,71.50
2018-03-01T18:56:06.369Z,69.30
2018-03-01T18:59:16.504Z,69.30
2018-03-01T19:02:26.651Z,71.10
2018-03-01T19:05:37.291Z,68.70
2018-03-01T19:08:48.210Z,67.80
2018-03-01T19:11:59.188Z,67.80
2018-03-01T19:15:09.927Z,67.90
2018-03-01T19:18:19.932Z,68.70
2018-03-01T19:21:30.333Z,66.80
2018-03-01T19:24:40.434Z,69.00
2018-03-01T19:27:50.647Z,70.90
2018-03-01T19:31:01.241Z,70.10
2018-03-01T19:34:12.847Z,73.30
2018-03-01T19:37:24.415Z,67.10
2018-03-01T19:40:34.602Z,70.20
2018-03-01T19:43:44.478Z,70.10
2018-03-01T19:46:54.429Z,71.20
2018-03-01T19:50:05.268Z,70.00
2018-03-01T19:53:15.185Z,70.80
2018-03-01T19:56:24.960Z,71.70
2018-03-01T19:59:34.851Z,70.60
2018-03-01T20:02:46.387Z,72.00
2018-03-01T20:05:56.732Z,72.00
2018-03-01T20:09:07.328Z,71.80
2018-03-01T20:12:18.068Z,73.30
2018-03-01T20:15:28.440Z,71.70
2018-03-01T20:18:38.372Z,73.60
2018-03-01T20:21:48.407Z,75.50
2018-03-01T20:24:58.348Z,76.20
2018-03-01T20:28:08.676Z,77.50
2018-03-01T20:31:19.011Z,78.20
2018-03-01T20:34:29.114Z,77.80
2018-03-01T20:37:40.759Z,79.90
2018-03-01T20:40:51.506Z,79.90
2018-03-01T20:44:01.676Z,80.20
2018-03-01T20:47:12.189Z,81.50
2018-03-01T20:50:22.251Z,79.40
2018-03-01T20:53:33.663Z,83.50
2018-03-01T20:56:44.143Z,83.30
2018-03-01T20:59:54.815Z,83.90
2018-03-01T21:03:05.166Z,84.40
2018-03-01T21:06:15.743Z,84.40
2018-03-01T21:09:25.916Z,86.70
2018-03-01T21:12:36.196Z,87.30
2018-03-01T21:15:46.731Z,87.50
2018-03-01T21:18:57.019Z,88.90
2018-03-01T21:22:07.365Z,89.00
2018-03-01T21:25:17.599Z,89.90
2018-03-01T21:28:27.555Z,90.10
2018-03-01T21:31:37.978Z,90.30
2018-03-01T21:34:48.314Z,90.50
2018-03-01T21:37:58.196Z,90.40
2018-03-01T21:41:08.250Z,90.40
2018-03-01T21:44:18.574Z,90.70
2018-03-01T21:47:28.860Z,91.40
2018-03-01T21:50:40.850Z,91.50
2018-03-01T21:53:51.547Z,91.50
2018-03-01T21:57:01.532Z,91.60
2018-03-01T22:00:11.652Z,91.50
2018-03-01T22:03:21.819Z,91.80
2018-03-01T22:06:32.570Z,91.90
2018-03-01T22:09:43.060Z,92.20
2018-03-01T22:12:52.953Z,92.10
2018-03-01T22:16:03.192Z,92.20
2018-03-01T22:19:13.724Z,92.70
2018-03-01T22:22:23.961Z,92.70
2018-03-01T22:25:35.080Z,93.00
2018-03-01T22:28:45.246Z,93.00
2018-03-01T22:31:55.204Z,93.20
2018-03-01T22:35:05.166Z,93.30
2018-03-01T22:38:15.688Z,93.60
2018-03-01T22:41:25.990Z,93.40
2018-03-01T22:44:37.344Z,93.90
2018-03-01T22:47:47.631Z,93.80
2018-03-01T22:50:58.086Z,94.00
2018-03-01T22:54:08.108Z,94.10
2018-03-01T22:57:18.398Z,94.30
2018-03-01T23:00:40.055Z,94.40
2018-03-01T23:03:50.120Z,94.60
2018-03-01T23:07:00.772Z,94.80
2018-03-01T23:10:11.906Z,95.20
2018-03-01T23:13:22.508Z,95.20
2018-03-01T23:16:32.577Z,95.10
2018-03-01T23:19:42.307Z,95.10
2018-03-01T23:22:52.457Z,95.20
2018-03-01T23:26:02.257Z,95.60
2018-03-01T23:29:13.231Z,95.90
2018-03-01T23:32:23.276Z,95.80
2018-03-01T23:35:34.023Z,95.80
2018-03-01T23:38:43.969Z,96.10
2018-03-01T23:41:54.124Z,96.40
2018-03-01T23:45:04.906Z,96.70
2018-03-01T23:48:16.131Z,96.70
2018-03-01T23:51:27.099Z,96.50
2018-03-01T23:54:37.800Z,96.60
2018-03-01T23:57:48.140Z,97.00
